sensor_id;sensor_type;location;lat;lon;timestamp;pressure;altitude;pressure_sealevel;temperature;humidity
4570;BME280;2297;51.442;6.996;2023-04-29T00:01:27;100003.31;;;12.55;63.10
4570;BME280;2297;51.442;6.996;2023-04-29T00:03:54;99996.16;;;12.84;62.04
4570;BME280;2297;51.442;6.996;2023-04-29T00:06:20;100003.97;;;12.87;61.95
4570;BME280;2297;51.442;6.996;2023-04-29T00:08:47;100000.47;;;12.86;61.75
4570;BME280;2297;51.442;6.996;2023-04-29T00:11:14;100005.47;;;12.69;62.37
4570;BME280;2297;51.442;6.996;2023-04-29T00:13:42;100005.47;;;12.69;62.24
4570;BME280;2297;51.442;6.996;2023-04-29T00:16:09;100012.75;;;12.89;61.54
4570;BME280;2297;51.442;6.996;2023-04-29T00:18:35;100008.41;;;12.86;61.45
4570;BME280;2297;51.442;6.996;2023-04-29T00:21:02;100012.25;;;12.77;61.74
4570;BME280;2297;51.442;6.996;2023-04-29T00:23:31;100016.63;;;12.78;61.07
4570;BME280;2297;51.442;6.996;2023-04-29T00:25:58;100017.06;;;12.66;61.62
4570;BME280;2297;51.442;6.996;2023-04-29T00:28:24;100022.81;;;12.52;62.05
4570;BME280;2297;51.442;6.996;2023-04-29T00:30:52;100026.03;;;12.87;61.15
4570;BME280;2297;51.442;6.996;2023-04-29T00:33:20;100029.78;;;12.55;61.83
4570;BME280;2297;51.442;6.996;2023-04-29T00:35:47;100033.41;;;12.52;62.03
4570;BME280;2297;51.442;6.996;2023-04-29T00:38:13;100034.59;;;12.70;61.25
4570;BME280;2297;51.442;6.996;2023-04-29T00:40:40;100035.94;;;12.82;60.94
4570;BME280;2297;51.442;6.996;2023-04-29T00:43:07;100034.03;;;12.86;60.73
4570;BME280;2297;51.442;6.996;2023-04-29T00:45:34;100040.16;;;12.36;61.81
4570;BME280;2297;51.442;6.996;2023-04-29T00:48:03;100049.53;;;11.88;62.84
4570;BME280;2297;51.442;6.996;2023-04-29T00:50:29;100046.25;;;11.79;63.64
4570;BME280;2297;51.442;6.996;2023-04-29T00:52:56;100048.25;;;12.01;62.96
4570;BME280;2297;51.442;6.996;2023-04-29T00:55:23;100044.78;;;12.29;61.64
4570;BME280;2297;51.442;6.996;2023-04-29T00:57:50;100056.06;;;12.34;61.70
4570;BME280;2297;51.442;6.996;2023-04-29T01:00:18;100056.59;;;12.17;62.12
4570;BME280;2297;51.442;6.996;2023-04-29T01:02:45;100060.00;;;12.21;62.00
4570;BME280;2297;51.442;6.996;2023-04-29T01:05:13;100063.50;;;12.23;61.70
4570;BME280;2297;51.442;6.996;2023-04-29T01:07:47;100066.25;;;12.20;61.80
4570;BME280;2297;51.442;6.996;2023-04-29T01:10:24;100061.09;;;12.13;61.92
4570;BME280;2297;51.442;6.996;2023-04-29T01:12:58;100058.84;;;12.01;62.16
4570;BME280;2297;51.442;6.996;2023-04-29T01:15:32;100077.16;;;12.07;62.15
4570;BME280;2297;51.442;6.996;2023-04-29T01:18:04;100075.66;;;12.28;61.75
4570;BME280;2297;51.442;6.996;2023-04-29T01:20:33;100080.19;;;12.53;61.13
4570;BME280;2297;51.442;6.996;2023-04-29T01:23:02;100073.19;;;12.24;61.48
4570;BME280;2297;51.442;6.996;2023-04-29T01:25:30;100075.91;;;11.91;62.34
4570;BME280;2297;51.442;6.996;2023-04-29T01:28:08;100078.38;;;12.27;61.58
4570;BME280;2297;51.442;6.996;2023-04-29T01:30:44;100079.19;;;11.99;61.64
4570;BME280;2297;51.442;6.996;2023-04-29T01:33:16;100085.13;;;11.77;62.63
4570;BME280;2297;51.442;6.996;2023-04-29T01:36:07;100089.50;;;11.78;62.28
4570;BME280;2297;51.442;6.996;2023-04-29T01:38:41;100086.03;;;11.76;62.68
4570;BME280;2297;51.442;6.996;2023-04-29T01:41:13;100088.13;;;11.95;61.69
4570;BME280;2297;51.442;6.996;2023-04-29T01:43:42;100091.78;;;11.91;61.95
4570;BME280;2297;51.442;6.996;2023-04-29T01:46:12;100086.91;;;12.07;61.37
4570;BME280;2297;51.442;6.996;2023-04-29T01:48:40;100084.97;;;12.12;61.45
4570;BME280;2297;51.442;6.996;2023-04-29T01:51:07;100089.03;;;11.94;61.68
4570;BME280;2297;51.442;6.996;2023-04-29T01:53:34;100089.66;;;12.02;61.98
4570;BME280;2297;51.442;6.996;2023-04-29T01:56:00;100095.31;;;12.21;61.01
4570;BME280;2297;51.442;6.996;2023-04-29T01:58:28;100098.72;;;11.95;61.81
4570;BME280;2297;51.442;6.996;2023-04-29T02:00:55;100095.16;;;11.96;61.95
4570;BME280;2297;51.442;6.996;2023-04-29T02:03:22;100096.56;;;12.08;61.72
4570;BME280;2297;51.442;6.996;2023-04-29T02:05:48;100102.97;;;12.30;60.89
4570;BME280;2297;51.442;6.996;2023-04-29T02:08:15;100103.25;;;12.21;60.71
4570;BME280;2297;51.442;6.996;2023-04-29T02:10:51;100098.06;;;12.17;60.96
4570;BME280;2297;51.442;6.996;2023-04-29T02:13:17;100106.91;;;12.15;60.94
4570;BME280;2297;51.442;6.996;2023-04-29T02:15:45;100116.53;;;12.18;60.69
4570;BME280;2297;51.442;6.996;2023-04-29T02:18:12;100110.50;;;11.53;62.10
4570;BME280;2297;51.442;6.996;2023-04-29T02:20:38;100117.38;;;11.90;61.77
4570;BME280;2297;51.442;6.996;2023-04-29T02:23:05;100115.97;;;11.47;62.01
4570;BME280;2297;51.442;6.996;2023-04-29T02:25:32;100119.84;;;11.67;61.62
4570;BME280;2297;51.442;6.996;2023-04-29T02:27:58;100120.53;;;11.73;60.97
4570;BME280;2297;51.442;6.996;2023-04-29T02:30:30;100120.56;;;12.02;60.34
4570;BME280;2297;51.442;6.996;2023-04-29T02:32:58;100132.22;;;11.96;60.05
4570;BME280;2297;51.442;6.996;2023-04-29T02:35:25;100132.91;;;11.71;60.57
4570;BME280;2297;51.442;6.996;2023-04-29T02:37:51;100132.38;;;11.90;59.81
4570;BME280;2297;51.442;6.996;2023-04-29T02:40:18;100142.31;;;12.11;59.30
4570;BME280;2297;51.442;6.996;2023-04-29T02:42:45;100129.53;;;11.66;60.28
4570;BME280;2297;51.442;6.996;2023-04-29T02:45:11;100138.59;;;11.89;59.64
4570;BME280;2297;51.442;6.996;2023-04-29T02:47:38;100135.47;;;11.74;59.89
4570;BME280;2297;51.442;6.996;2023-04-29T02:50:07;100145.75;;;11.54;60.94
4570;BME280;2297;51.442;6.996;2023-04-29T02:52:34;100149.88;;;11.64;60.73
4570;BME280;2297;51.442;6.996;2023-04-29T02:55:00;100144.81;;;11.56;60.65
4570;BME280;2297;51.442;6.996;2023-04-29T02:57:27;100155.31;;;11.91;59.98
4570;BME280;2297;51.442;6.996;2023-04-29T02:59:54;100158.69;;;11.96;60.00
4570;BME280;2297;51.442;6.996;2023-04-29T03:02:21;100156.28;;;12.17;59.38
4570;BME280;2297;51.442;6.996;2023-04-29T03:04:48;100157.78;;;12.27;59.28
4570;BME280;2297;51.442;6.996;2023-04-29T03:07:16;100155.19;;;12.25;59.14
4570;BME280;2297;51.442;6.996;2023-04-29T03:09:42;100160.97;;;12.08;59.41
4570;BME280;2297;51.442;6.996;2023-04-29T03:12:09;100165.28;;;12.11;59.29
4570;BME280;2297;51.442;6.996;2023-04-29T03:14:36;100154.94;;;12.03;59.49
4570;BME280;2297;51.442;6.996;2023-04-29T03:17:02;100165.84;;;12.24;59.32
4570;BME280;2297;51.442;6.996;2023-04-29T03:19:29;100163.72;;;12.05;59.24
4570;BME280;2297;51.442;6.996;2023-04-29T03:21:56;100169.53;;;12.17;58.88
4570;BME280;2297;51.442;6.996;2023-04-29T03:24:24;100171.44;;;11.81;60.09
4570;BME280;2297;51.442;6.996;2023-04-29T03:26:50;100176.41;;;11.61;60.35
4570;BME280;2297;51.442;6.996;2023-04-29T03:29:17;100173.56;;;12.00;60.09
4570;BME280;2297;51.442;6.996;2023-04-29T03:31:43;100178.63;;;11.76;60.43
4570;BME280;2297;51.442;6.996;2023-04-29T03:34:10;100180.50;;;11.73;60.26
4570;BME280;2297;51.442;6.996;2023-04-29T03:36:38;100178.72;;;11.73;60.43
4570;BME280;2297;51.442;6.996;2023-04-29T03:39:05;100189.38;;;11.70;60.36
4570;BME280;2297;51.442;6.996;2023-04-29T03:41:33;100184.81;;;11.75;60.53
4570;BME280;2297;51.442;6.996;2023-04-29T03:44:00;100188.16;;;11.82;60.52
4570;BME280;2297;51.442;6.996;2023-04-29T03:46:26;100187.28;;;11.50;61.00
4570;BME280;2297;51.442;6.996;2023-04-29T03:48:53;100180.69;;;11.65;60.52
4570;BME280;2297;51.442;6.996;2023-04-29T03:51:21;100186.56;;;11.43;61.12
4570;BME280;2297;51.442;6.996;2023-04-29T03:53:47;100186.81;;;11.34;61.58
4570;BME280;2297;51.442;6.996;2023-04-29T03:56:14;100177.41;;;11.57;60.97
4570;BME280;2297;51.442;6.996;2023-04-29T03:58:42;100184.03;;;11.72;60.68
4570;BME280;2297;51.442;6.996;2023-04-29T04:01:09;100189.06;;;11.81;60.60
4570;BME280;2297;51.442;6.996;2023-04-29T04:03:36;100182.69;;;11.57;60.87
4570;BME280;2297;51.442;6.996;2023-04-29T04:06:03;100197.16;;;11.43;60.80
4570;BME280;2297;51.442;6.996;2023-04-29T04:08:29;100200.84;;;11.71;60.71
4570;BME280;2297;51.442;6.996;2023-04-29T04:10:56;100196.50;;;11.68;60.29
4570;BME280;2297;51.442;6.996;2023-04-29T04:13:27;100209.13;;;11.90;60.19
4570;BME280;2297;51.442;6.996;2023-04-29T04:15:55;100211.69;;;11.93;60.19
4570;BME280;2297;51.442;6.996;2023-04-29T04:18:22;100214.31;;;11.93;59.79
4570;BME280;2297;51.442;6.996;2023-04-29T04:20:49;100213.25;;;12.00;59.90
4570;BME280;2297;51.442;6.996;2023-04-29T04:23:15;100213.16;;;12.03;59.91
4570;BME280;2297;51.442;6.996;2023-04-29T04:25:45;100212.03;;;12.12;59.54
4570;BME280;2297;51.442;6.996;2023-04-29T04:28:11;100220.31;;;11.68;60.20
4570;BME280;2297;51.442;6.996;2023-04-29T04:30:38;100215.50;;;11.83;59.90
4570;BME280;2297;51.442;6.996;2023-04-29T04:33:06;100227.84;;;11.82;59.93
4570;BME280;2297;51.442;6.996;2023-04-29T04:35:33;100226.69;;;11.92;59.31
4570;BME280;2297;51.442;6.996;2023-04-29T04:37:59;100221.94;;;12.05;59.44
4570;BME280;2297;51.442;6.996;2023-04-29T04:40:26;100226.22;;;12.09;59.17
4570;BME280;2297;51.442;6.996;2023-04-29T04:42:53;100227.28;;;12.02;59.08
4570;BME280;2297;51.442;6.996;2023-04-29T04:45:19;100237.69;;;12.10;58.88
4570;BME280;2297;51.442;6.996;2023-04-29T04:47:46;100239.38;;;12.12;58.80
4570;BME280;2297;51.442;6.996;2023-04-29T04:50:14;100233.22;;;12.12;58.94
4570;BME280;2297;51.442;6.996;2023-04-29T04:52:41;100245.19;;;11.94;59.27
4570;BME280;2297;51.442;6.996;2023-04-29T04:55:08;100241.22;;;12.10;58.54
4570;BME280;2297;51.442;6.996;2023-04-29T04:57:35;100245.63;;;12.10;58.68
4570;BME280;2297;51.442;6.996;2023-04-29T05:00:02;100247.91;;;12.24;58.78
4570;BME280;2297;51.442;6.996;2023-04-29T05:02:29;100259.25;;;12.29;58.45
4570;BME280;2297;51.442;6.996;2023-04-29T05:04:56;100258.25;;;12.33;58.05
4570;BME280;2297;51.442;6.996;2023-04-29T05:07:24;100256.28;;;12.40;58.09
4570;BME280;2297;51.442;6.996;2023-04-29T05:09:50;100260.06;;;12.31;57.81
4570;BME280;2297;51.442;6.996;2023-04-29T05:12:17;100258.16;;;12.36;57.86
4570;BME280;2297;51.442;6.996;2023-04-29T05:14:44;100261.63;;;12.38;57.50
4570;BME280;2297;51.442;6.996;2023-04-29T05:17:16;100274.13;;;12.00;58.29
4570;BME280;2297;51.442;6.996;2023-04-29T05:19:43;100272.22;;;12.05;58.22
4570;BME280;2297;51.442;6.996;2023-04-29T05:22:09;100281.56;;;12.19;57.65
4570;BME280;2297;51.442;6.996;2023-04-29T05:24:37;100278.16;;;12.13;57.65
4570;BME280;2297;51.442;6.996;2023-04-29T05:27:04;100279.75;;;12.22;57.37
4570;BME280;2297;51.442;6.996;2023-04-29T05:29:32;100280.69;;;12.18;57.73
4570;BME280;2297;51.442;6.996;2023-04-29T05:31:59;100283.97;;;12.28;58.04
4570;BME280;2297;51.442;6.996;2023-04-29T05:34:25;100290.56;;;12.11;57.75
4570;BME280;2297;51.442;6.996;2023-04-29T05:36:52;100290.47;;;12.16;57.93
4570;BME280;2297;51.442;6.996;2023-04-29T05:39:18;100292.41;;;12.09;58.06
4570;BME280;2297;51.442;6.996;2023-04-29T05:41:46;100295.00;;;12.11;57.91
4570;BME280;2297;51.442;6.996;2023-04-29T05:44:13;100295.69;;;12.18;57.83
4570;BME280;2297;51.442;6.996;2023-04-29T05:46:39;100300.16;;;12.17;57.68
4570;BME280;2297;51.442;6.996;2023-04-29T05:49:06;100310.66;;;12.20;57.50
4570;BME280;2297;51.442;6.996;2023-04-29T05:51:33;100311.47;;;12.24;57.48
4570;BME280;2297;51.442;6.996;2023-04-29T05:53:59;100314.38;;;12.11;57.65
4570;BME280;2297;51.442;6.996;2023-04-29T05:56:26;100319.47;;;12.19;57.59
4570;BME280;2297;51.442;6.996;2023-04-29T05:58:54;100316.47;;;12.00;58.17
4570;BME280;2297;51.442;6.996;2023-04-29T06:01:21;100327.47;;;11.85;58.02
4570;BME280;2297;51.442;6.996;2023-04-29T06:03:47;100327.13;;;11.97;57.88
4570;BME280;2297;51.442;6.996;2023-04-29T06:06:14;100322.91;;;11.90;57.54
4570;BME280;2297;51.442;6.996;2023-04-29T06:08:41;100330.31;;;12.10;57.38
4570;BME280;2297;51.442;6.996;2023-04-29T06:11:07;100337.34;;;12.11;57.25
4570;BME280;2297;51.442;6.996;2023-04-29T06:13:34;100340.53;;;12.25;57.19
4570;BME280;2297;51.442;6.996;2023-04-29T06:16:02;100346.84;;;12.21;56.70
4570;BME280;2297;51.442;6.996;2023-04-29T06:18:29;100343.13;;;12.27;56.79
4570;BME280;2297;51.442;6.996;2023-04-29T06:20:55;100350.41;;;12.19;56.59
4570;BME280;2297;51.442;6.996;2023-04-29T06:23:22;100350.28;;;12.23;56.68
4570;BME280;2297;51.442;6.996;2023-04-29T06:25:49;100355.69;;;12.19;56.60
4570;BME280;2297;51.442;6.996;2023-04-29T06:28:16;100351.03;;;11.94;57.53
4570;BME280;2297;51.442;6.996;2023-04-29T06:30:43;100361.28;;;12.06;56.98
4570;BME280;2297;51.442;6.996;2023-04-29T06:33:12;100359.94;;;12.26;56.29
4570;BME280;2297;51.442;6.996;2023-04-29T06:35:39;100367.63;;;12.01;56.94
4570;BME280;2297;51.442;6.996;2023-04-29T06:38:06;100373.63;;;12.07;57.55
4570;BME280;2297;51.442;6.996;2023-04-29T06:40:33;100381.19;;;11.88;57.25
4570;BME280;2297;51.442;6.996;2023-04-29T06:43:00;100376.22;;;12.10;56.93
4570;BME280;2297;51.442;6.996;2023-04-29T06:45:28;100374.22;;;12.19;56.68
4570;BME280;2297;51.442;6.996;2023-04-29T06:47:55;100380.50;;;12.14;56.63
4570;BME280;2297;51.442;6.996;2023-04-29T06:50:23;100380.22;;;12.27;56.42
4570;BME280;2297;51.442;6.996;2023-04-29T06:52:50;100394.34;;;12.26;56.72
4570;BME280;2297;51.442;6.996;2023-04-29T06:55:16;100385.88;;;12.11;56.85
4570;BME280;2297;51.442;6.996;2023-04-29T06:57:43;100386.28;;;11.96;56.93
4570;BME280;2297;51.442;6.996;2023-04-29T07:00:10;100395.69;;;12.06;56.84
4570;BME280;2297;51.442;6.996;2023-04-29T07:02:37;100397.94;;;12.23;56.41
4570;BME280;2297;51.442;6.996;2023-04-29T07:05:04;100399.84;;;12.17;56.41
4570;BME280;2297;51.442;6.996;2023-04-29T07:07:33;100399.44;;;11.99;57.50
4570;BME280;2297;51.442;6.996;2023-04-29T07:09:59;100401.59;;;11.83;57.97
4570;BME280;2297;51.442;6.996;2023-04-29T07:12:26;100408.94;;;12.06;57.34
4570;BME280;2297;51.442;6.996;2023-04-29T07:14:52;100410.44;;;12.17;56.88
4570;BME280;2297;51.442;6.996;2023-04-29T07:17:19;100412.03;;;11.89;57.62
4570;BME280;2297;51.442;6.996;2023-04-29T07:19:46;100414.16;;;12.09;57.12
4570;BME280;2297;51.442;6.996;2023-04-29T07:22:12;100425.34;;;12.22;56.51
4570;BME280;2297;51.442;6.996;2023-04-29T07:24:40;100430.56;;;12.25;56.89
4570;BME280;2297;51.442;6.996;2023-04-29T07:27:07;100431.50;;;12.23;56.14
4570;BME280;2297;51.442;6.996;2023-04-29T07:29:33;100433.50;;;12.11;56.65
4570;BME280;2297;51.442;6.996;2023-04-29T07:32:00;100437.81;;;12.15;56.86
4570;BME280;2297;51.442;6.996;2023-04-29T07:34:27;100445.66;;;12.22;56.87
4570;BME280;2297;51.442;6.996;2023-04-29T07:36:53;100447.34;;;11.88;57.21
4570;BME280;2297;51.442;6.996;2023-04-29T07:39:20;100451.50;;;11.97;57.54
4570;BME280;2297;51.442;6.996;2023-04-29T07:41:48;100460.06;;;12.08;57.07
4570;BME280;2297;51.442;6.996;2023-04-29T07:44:16;100456.34;;;12.15;56.81
4570;BME280;2297;51.442;6.996;2023-04-29T07:46:43;100465.03;;;12.24;56.69
4570;BME280;2297;51.442;6.996;2023-04-29T07:49:09;100468.66;;;12.18;56.71
4570;BME280;2297;51.442;6.996;2023-04-29T07:51:36;100474.94;;;12.14;56.98
4570;BME280;2297;51.442;6.996;2023-04-29T07:54:02;100475.88;;;12.13;57.02
4570;BME280;2297;51.442;6.996;2023-04-29T07:56:30;100471.56;;;12.07;57.13
4570;BME280;2297;51.442;6.996;2023-04-29T07:58:58;100476.50;;;11.87;57.46
4570;BME280;2297;51.442;6.996;2023-04-29T08:01:25;100480.50;;;12.03;57.20
4570;BME280;2297;51.442;6.996;2023-04-29T08:03:52;100476.28;;;11.96;57.31
4570;BME280;2297;51.442;6.996;2023-04-29T08:06:19;100486.91;;;11.93;57.08
4570;BME280;2297;51.442;6.996;2023-04-29T08:08:46;100484.97;;;12.01;56.81
4570;BME280;2297;51.442;6.996;2023-04-29T08:11:16;100490.41;;;11.95;56.99
4570;BME280;2297;51.442;6.996;2023-04-29T08:13:43;100486.91;;;11.93;56.86
4570;BME280;2297;51.442;6.996;2023-04-29T08:16:11;100490.84;;;11.76;57.35
4570;BME280;2297;51.442;6.996;2023-04-29T08:18:38;100500.50;;;11.77;57.70
4570;BME280;2297;51.442;6.996;2023-04-29T08:21:04;100497.56;;;11.90;57.26
4570;BME280;2297;51.442;6.996;2023-04-29T08:23:31;100500.19;;;11.91;57.40
4570;BME280;2297;51.442;6.996;2023-04-29T08:25:58;100502.06;;;11.86;57.13
4570;BME280;2297;51.442;6.996;2023-04-29T08:28:25;100501.88;;;11.94;57.01
4570;BME280;2297;51.442;6.996;2023-04-29T08:30:51;100508.03;;;11.96;57.31
4570;BME280;2297;51.442;6.996;2023-04-29T08:33:19;100509.75;;;11.97;57.05
4570;BME280;2297;51.442;6.996;2023-04-29T08:35:47;100520.41;;;11.94;56.93
4570;BME280;2297;51.442;6.996;2023-04-29T08:38:14;100513.25;;;11.99;56.69
4570;BME280;2297;51.442;6.996;2023-04-29T08:40:42;100516.66;;;12.04;57.03
4570;BME280;2297;51.442;6.996;2023-04-29T08:43:10;100510.41;;;12.07;56.79
4570;BME280;2297;51.442;6.996;2023-04-29T08:45:38;100523.69;;;12.05;56.72
4570;BME280;2297;51.442;6.996;2023-04-29T08:48:05;100528.81;;;12.11;56.75
4570;BME280;2297;51.442;6.996;2023-04-29T08:50:36;100525.13;;;12.19;56.57
4570;BME280;2297;51.442;6.996;2023-04-29T08:53:04;100530.66;;;12.09;56.11
4570;BME280;2297;51.442;6.996;2023-04-29T08:55:34;100533.22;;;12.12;55.78
4570;BME280;2297;51.442;6.996;2023-04-29T08:58:02;100534.53;;;11.93;56.68
4570;BME280;2297;51.442;6.996;2023-04-29T09:00:30;100537.91;;;12.01;56.74
4570;BME280;2297;51.442;6.996;2023-04-29T09:02:57;100539.34;;;12.14;56.25
4570;BME280;2297;51.442;6.996;2023-04-29T09:05:26;100536.59;;;12.19;56.16
4570;BME280;2297;51.442;6.996;2023-04-29T09:07:55;100539.16;;;12.24;56.03
4570;BME280;2297;51.442;6.996;2023-04-29T09:10:24;100539.09;;;12.27;55.90
4570;BME280;2297;51.442;6.996;2023-04-29T09:12:55;100551.41;;;12.28;55.36
4570;BME280;2297;51.442;6.996;2023-04-29T09:15:45;100549.00;;;12.17;55.92
4570;BME280;2297;51.442;6.996;2023-04-29T09:18:41;100548.28;;;12.10;56.16
4570;BME280;2297;51.442;6.996;2023-04-29T09:21:15;100564.94;;;12.14;55.67
4570;BME280;2297;51.442;6.996;2023-04-29T09:23:44;100567.53;;;12.15;55.98
4570;BME280;2297;51.442;6.996;2023-04-29T09:29:18;100565.47;;;12.30;55.60
4570;BME280;2297;51.442;6.996;2023-04-29T09:31:45;100568.06;;;12.33;55.70
4570;BME280;2297;51.442;6.996;2023-04-29T09:34:12;100572.44;;;12.34;55.71
4570;BME280;2297;51.442;6.996;2023-04-29T09:36:41;100573.91;;;12.46;55.12
4570;BME280;2297;51.442;6.996;2023-04-29T09:39:12;100582.81;;;12.43;55.67
4570;BME280;2297;51.442;6.996;2023-04-29T09:41:42;100579.88;;;12.56;55.06
4570;BME280;2297;51.442;6.996;2023-04-29T09:44:09;100577.06;;;12.62;54.90
4570;BME280;2297;51.442;6.996;2023-04-29T09:46:36;100569.88;;;12.67;54.87
4570;BME280;2297;51.442;6.996;2023-04-29T09:49:03;100572.47;;;12.69;54.73
4570;BME280;2297;51.442;6.996;2023-04-29T09:51:30;100578.56;;;12.72;54.60
4570;BME280;2297;51.442;6.996;2023-04-29T09:53:59;100582.84;;;12.78;54.15
4570;BME280;2297;51.442;6.996;2023-04-29T09:56:27;100576.59;;;12.80;53.87
4570;BME280;2297;51.442;6.996;2023-04-29T09:58:55;100589.03;;;12.78;53.94
4570;BME280;2297;51.442;6.996;2023-04-29T10:01:23;100589.72;;;12.85;54.10
4570;BME280;2297;51.442;6.996;2023-04-29T10:03:54;100586.94;;;12.90;53.40
4570;BME280;2297;51.442;6.996;2023-04-29T10:06:21;100589.44;;;12.96;53.20
4570;BME280;2297;51.442;6.996;2023-04-29T10:08:49;100586.66;;;13.02;53.38
4570;BME280;2297;51.442;6.996;2023-04-29T10:11:16;100595.00;;;13.20;52.74
4570;BME280;2297;51.442;6.996;2023-04-29T10:13:45;100597.38;;;13.30;52.46
4570;BME280;2297;51.442;6.996;2023-04-29T10:16:25;100596.59;;;13.27;52.60
4570;BME280;2297;51.442;6.996;2023-04-29T10:18:54;100594.53;;;13.38;51.81
4570;BME280;2297;51.442;6.996;2023-04-29T10:21:26;100597.28;;;13.35;52.57
4570;BME280;2297;51.442;6.996;2023-04-29T10:23:56;100595.38;;;13.40;52.66
4570;BME280;2297;51.442;6.996;2023-04-29T10:26:26;100592.34;;;13.53;52.70
4570;BME280;2297;51.442;6.996;2023-04-29T10:28:55;100594.66;;;13.65;52.04
4570;BME280;2297;51.442;6.996;2023-04-29T10:31:24;100597.94;;;13.73;51.87
4570;BME280;2297;51.442;6.996;2023-04-29T10:33:54;100598.41;;;13.88;51.55
4570;BME280;2297;51.442;6.996;2023-04-29T10:36:22;100596.19;;;14.02;50.95
4570;BME280;2297;51.442;6.996;2023-04-29T10:38:51;100598.72;;;14.07;50.62
4570;BME280;2297;51.442;6.996;2023-04-29T10:41:21;100603.94;;;14.10;50.17
4570;BME280;2297;51.442;6.996;2023-04-29T10:43:50;100594.78;;;14.20;50.38
4570;BME280;2297;51.442;6.996;2023-04-29T10:46:19;100600.50;;;14.36;50.18
4570;BME280;2297;51.442;6.996;2023-04-29T10:48:47;100602.13;;;14.40;49.25
4570;BME280;2297;51.442;6.996;2023-04-29T10:51:28;100607.25;;;14.46;48.92
4570;BME280;2297;51.442;6.996;2023-04-29T10:53:58;100605.28;;;14.52;49.09
4570;BME280;2297;51.442;6.996;2023-04-29T10:56:35;100612.16;;;14.59;49.36
4570;BME280;2297;51.442;6.996;2023-04-29T10:59:02;100610.09;;;14.67;48.55
4570;BME280;2297;51.442;6.996;2023-04-29T11:01:41;100616.31;;;14.68;47.88
4570;BME280;2297;51.442;6.996;2023-04-29T11:04:08;100614.34;;;14.73;48.01
4570;BME280;2297;51.442;6.996;2023-04-29T11:06:45;100614.13;;;14.79;48.31
4570;BME280;2297;51.442;6.996;2023-04-29T11:09:13;100621.03;;;14.85;47.90
4570;BME280;2297;51.442;6.996;2023-04-29T11:11:55;100626.97;;;14.93;47.54
4570;BME280;2297;51.442;6.996;2023-04-29T11:14:24;100624.72;;;14.80;47.41
4570;BME280;2297;51.442;6.996;2023-04-29T11:16:56;100623.69;;;14.85;47.67
4570;BME280;2297;51.442;6.996;2023-04-29T11:19:25;100624.13;;;14.72;47.91
4570;BME280;2297;51.442;6.996;2023-04-29T11:22:10;100618.94;;;14.94;47.93
4570;BME280;2297;51.442;6.996;2023-04-29T11:24:48;100622.19;;;15.03;48.11
4570;BME280;2297;51.442;6.996;2023-04-29T11:27:16;100616.13;;;14.99;48.44
4570;BME280;2297;51.442;6.996;2023-04-29T11:29:44;100614.59;;;15.19;47.66
4570;BME280;2297;51.442;6.996;2023-04-29T11:32:12;100621.91;;;15.37;47.78
4570;BME280;2297;51.442;6.996;2023-04-29T11:34:38;100627.03;;;15.43;46.82
4570;BME280;2297;51.442;6.996;2023-04-29T11:37:05;100626.56;;;15.56;46.13
4570;BME280;2297;51.442;6.996;2023-04-29T11:39:33;100626.63;;;15.54;45.19
4570;BME280;2297;51.442;6.996;2023-04-29T11:42:03;100619.16;;;15.64;45.54
4570;BME280;2297;51.442;6.996;2023-04-29T11:44:32;100620.44;;;15.77;45.14
4570;BME280;2297;51.442;6.996;2023-04-29T11:47:02;100625.06;;;15.96;44.36
4570;BME280;2297;51.442;6.996;2023-04-29T11:49:31;100618.72;;;15.76;44.91
4570;BME280;2297;51.442;6.996;2023-04-29T11:51:57;100627.38;;;16.05;44.51
4570;BME280;2297;51.442;6.996;2023-04-29T11:54:25;100628.88;;;16.36;44.28
4570;BME280;2297;51.442;6.996;2023-04-29T11:56:52;100628.72;;;16.39;43.25
4570;BME280;2297;51.442;6.996;2023-04-29T11:59:19;100628.53;;;16.22;42.88
4570;BME280;2297;51.442;6.996;2023-04-29T12:01:46;100632.94;;;16.23;43.29
4570;BME280;2297;51.442;6.996;2023-04-29T12:04:13;100619.25;;;16.32;42.89
4570;BME280;2297;51.442;6.996;2023-04-29T12:06:42;100618.22;;;16.36;43.14
4570;BME280;2297;51.442;6.996;2023-04-29T12:09:08;100624.59;;;16.32;43.38
4570;BME280;2297;51.442;6.996;2023-04-29T12:11:35;100626.88;;;16.41;43.33
4570;BME280;2297;51.442;6.996;2023-04-29T12:17:24;100628.09;;;16.10;42.54
4570;BME280;2297;51.442;6.996;2023-04-29T12:19:51;100626.69;;;16.00;43.46
4570;BME280;2297;51.442;6.996;2023-04-29T12:22:19;100627.66;;;15.99;43.55
4570;BME280;2297;51.442;6.996;2023-04-29T12:24:46;100627.28;;;16.08;43.62
4570;BME280;2297;51.442;6.996;2023-04-29T12:27:15;100628.09;;;16.10;43.36
4570;BME280;2297;51.442;6.996;2023-04-29T12:29:42;100629.47;;;16.21;43.38
4570;BME280;2297;51.442;6.996;2023-04-29T12:32:12;100630.72;;;16.34;43.15
4570;BME280;2297;51.442;6.996;2023-04-29T12:34:45;100621.91;;;16.54;41.27
4570;BME280;2297;51.442;6.996;2023-04-29T12:37:11;100624.41;;;16.59;41.17
4570;BME280;2297;51.442;6.996;2023-04-29T12:39:40;100627.13;;;16.57;40.87
4570;BME280;2297;51.442;6.996;2023-04-29T12:42:13;100632.13;;;16.65;40.92
4570;BME280;2297;51.442;6.996;2023-04-29T12:44:40;100626.09;;;16.60;41.35
4570;BME280;2297;51.442;6.996;2023-04-29T12:47:07;100622.03;;;16.51;40.46
4570;BME280;2297;51.442;6.996;2023-04-29T12:49:34;100633.81;;;16.45;40.32
4570;BME280;2297;51.442;6.996;2023-04-29T12:52:01;100628.88;;;16.36;41.04
4570;BME280;2297;51.442;6.996;2023-04-29T12:54:28;100629.34;;;16.24;40.79
4570;BME280;2297;51.442;6.996;2023-04-29T12:56:56;100631.16;;;16.00;41.32
4570;BME280;2297;51.442;6.996;2023-04-29T12:59:23;100630.13;;;16.04;41.45
4570;BME280;2297;51.442;6.996;2023-04-29T13:01:49;100624.72;;;16.05;40.71
4570;BME280;2297;51.442;6.996;2023-04-29T13:04:16;100637.34;;;16.00;40.60
4570;BME280;2297;51.442;6.996;2023-04-29T13:06:43;100630.63;;;15.90;41.45
4570;BME280;2297;51.442;6.996;2023-04-29T13:09:09;100638.31;;;15.50;41.40
4570;BME280;2297;51.442;6.996;2023-04-29T13:11:36;100636.59;;;15.73;40.65
4570;BME280;2297;51.442;6.996;2023-04-29T13:14:05;100639.13;;;15.76;40.85
4570;BME280;2297;51.442;6.996;2023-04-29T13:16:32;100641.09;;;15.71;41.22
4570;BME280;2297;51.442;6.996;2023-04-29T13:18:59;100638.63;;;15.66;41.40
4570;BME280;2297;51.442;6.996;2023-04-29T13:21:26;100645.06;;;15.59;41.41